sensor_id;sensor_type;location;lat;lon;timestamp;pressure;altitude;pressure_sealevel;temperature;humidity
17260;BME280;8746;49.230;9.220;2022-08-19T00:02:22;99456.94;;;21.02;64.06
17260;BME280;8746;49.230;9.220;2022-08-19T00:04:48;99460.34;;;20.94;64.26
17260;BME280;8746;49.230;9.220;2022-08-19T00:07:20;99455.38;;;20.99;64.23
17260;BME280;8746;49.230;9.220;2022-08-19T00:09:45;99459.78;;;21.00;64.87
17260;BME280;8746;49.230;9.220;2022-08-19T00:12:12;99445.78;;;20.96;65.48
17260;BME280;8746;49.230;9.220;2022-08-19T00:14:39;99445.38;;;21.01;63.91
17260;BME280;8746;49.230;9.220;2022-08-19T00:17:07;99439.72;;;21.04;63.42
17260;BME280;8746;49.230;9.220;2022-08-19T00:19:34;99453.56;;;21.00;64.04
17260;BME280;8746;49.230;9.220;2022-08-19T00:21:59;99453.44;;;21.01;63.98
17260;BME280;8746;49.230;9.220;2022-08-19T00:24:25;99449.91;;;21.01;64.31
17260;BME280;8746;49.230;9.220;2022-08-19T00:26:52;99434.66;;;21.01;64.06
17260;BME280;8746;49.230;9.220;2022-08-19T00:29:19;99436.78;;;20.97;64.35
17260;BME280;8746;49.230;9.220;2022-08-19T00:31:46;99442.28;;;20.96;64.29
17260;BME280;8746;49.230;9.220;2022-08-19T00:34:13;99445.94;;;20.95;64.54
17260;BME280;8746;49.230;9.220;2022-08-19T00:36:40;99452.13;;;20.95;64.76
17260;BME280;8746;49.230;9.220;2022-08-19T00:39:06;99448.63;;;20.95;64.58
17260;BME280;8746;49.230;9.220;2022-08-19T00:41:32;99447.50;;;20.97;64.45
17260;BME280;8746;49.230;9.220;2022-08-19T00:44:04;99435.22;;;20.95;64.32
17260;BME280;8746;49.230;9.220;2022-08-19T00:46:30;99443.81;;;20.98;64.80
17260;BME280;8746;49.230;9.220;2022-08-19T00:48:57;99451.56;;;21.02;64.94
17260;BME280;8746;49.230;9.220;2022-08-19T00:51:25;99450.75;;;21.01;65.13
17260;BME280;8746;49.230;9.220;2022-08-19T00:53:54;99437.47;;;21.00;65.08
17260;BME280;8746;49.230;9.220;2022-08-19T00:56:19;99423.34;;;20.97;64.44
17260;BME280;8746;49.230;9.220;2022-08-19T00:58:45;99408.56;;;20.93;64.29
17260;BME280;8746;49.230;9.220;2022-08-19T01:01:10;99400.50;;;20.93;64.60
17260;BME280;8746;49.230;9.220;2022-08-19T01:03:35;99395.56;;;20.98;64.47
17260;BME280;8746;49.230;9.220;2022-08-19T01:06:01;99405.56;;;20.96;64.61
17260;BME280;8746;49.230;9.220;2022-08-19T01:08:27;99417.72;;;21.01;64.66
17260;BME280;8746;49.230;9.220;2022-08-19T01:10:56;99435.63;;;20.90;65.18
17260;BME280;8746;49.230;9.220;2022-08-19T01:13:25;99441.72;;;20.92;65.33
17260;BME280;8746;49.230;9.220;2022-08-19T01:15:57;99456.09;;;20.81;66.51
17260;BME280;8746;49.230;9.220;2022-08-19T01:18:24;99452.13;;;20.76;66.98
17260;BME280;8746;49.230;9.220;2022-08-19T01:20:54;99442.69;;;20.72;67.66
17260;BME280;8746;49.230;9.220;2022-08-19T01:23:21;99448.75;;;20.74;67.13
17260;BME280;8746;49.230;9.220;2022-08-19T01:25:51;99446.31;;;20.71;66.13
17260;BME280;8746;49.230;9.220;2022-08-19T01:28:20;99446.09;;;20.74;65.70
17260;BME280;8746;49.230;9.220;2022-08-19T01:30:46;99443.81;;;20.79;65.72
17260;BME280;8746;49.230;9.220;2022-08-19T01:33:13;99443.25;;;20.85;65.23
17260;BME280;8746;49.230;9.220;2022-08-19T01:35:39;99445.66;;;20.88;65.08
17260;BME280;8746;49.230;9.220;2022-08-19T01:38:07;99446.94;;;20.84;65.45
17260;BME280;8746;49.230;9.220;2022-08-19T01:40:38;99437.47;;;20.80;65.66
17260;BME280;8746;49.230;9.220;2022-08-19T01:43:05;99438.47;;;20.79;65.58
17260;BME280;8746;49.230;9.220;2022-08-19T01:45:32;99444.53;;;20.81;65.68
17260;BME280;8746;49.230;9.220;2022-08-19T01:47:59;99448.47;;;20.77;66.13
17260;BME280;8746;49.230;9.220;2022-08-19T01:50:25;99446.78;;;20.76;66.43
17260;BME280;8746;49.230;9.220;2022-08-19T01:52:52;99449.44;;;20.76;65.88
17260;BME280;8746;49.230;9.220;2022-08-19T01:55:20;99449.00;;;20.71;66.20
17260;BME280;8746;49.230;9.220;2022-08-19T01:57:50;99445.38;;;20.72;66.15
17260;BME280;8746;49.230;9.220;2022-08-19T02:00:20;99452.66;;;20.70;66.49
17260;BME280;8746;49.230;9.220;2022-08-19T02:02:46;99443.34;;;20.64;66.50
17260;BME280;8746;49.230;9.220;2022-08-19T02:05:12;99451.09;;;20.67;66.31
17260;BME280;8746;49.230;9.220;2022-08-19T02:07:40;99441.09;;;20.59;66.47
17260;BME280;8746;49.230;9.220;2022-08-19T02:10:09;99442.91;;;20.59;66.88
17260;BME280;8746;49.230;9.220;2022-08-19T02:12:35;99438.13;;;20.62;66.66
17260;BME280;8746;49.230;9.220;2022-08-19T02:15:01;99444.91;;;20.57;66.60
17260;BME280;8746;49.230;9.220;2022-08-19T02:17:28;99448.41;;;20.47;67.14
17260;BME280;8746;49.230;9.220;2022-08-19T02:19:54;99452.63;;;20.50;67.39
17260;BME280;8746;49.230;9.220;2022-08-19T02:22:20;99455.03;;;20.53;67.11
17260;BME280;8746;49.230;9.220;2022-08-19T02:24:45;99448.53;;;20.46;67.24
17260;BME280;8746;49.230;9.220;2022-08-19T02:27:11;99447.41;;;20.48;67.24
17260;BME280;8746;49.230;9.220;2022-08-19T02:29:36;99450.94;;;20.49;67.25
17260;BME280;8746;49.230;9.220;2022-08-19T02:32:02;99446.69;;;20.46;67.43
17260;BME280;8746;49.230;9.220;2022-08-19T02:34:28;99443.44;;;20.43;67.36
17260;BME280;8746;49.230;9.220;2022-08-19T02:36:54;99437.41;;;20.50;67.55
17260;BME280;8746;49.230;9.220;2022-08-19T02:39:19;99440.75;;;20.43;67.52
17260;BME280;8746;49.230;9.220;2022-08-19T02:41:44;99436.25;;;20.33;67.81
17260;BME280;8746;49.230;9.220;2022-08-19T02:44:10;99447.22;;;20.30;68.01
17260;BME280;8746;49.230;9.220;2022-08-19T02:46:35;99439.63;;;20.36;67.70
17260;BME280;8746;49.230;9.220;2022-08-19T02:49:04;99447.38;;;20.29;68.09
17260;BME280;8746;49.230;9.220;2022-08-19T02:51:37;99447.50;;;20.27;68.37
17260;BME280;8746;49.230;9.220;2022-08-19T02:54:04;99444.94;;;20.26;68.12
17260;BME280;8746;49.230;9.220;2022-08-19T02:56:30;99445.09;;;20.24;68.59
17260;BME280;8746;49.230;9.220;2022-08-19T02:58:56;99440.03;;;20.21;68.53
17260;BME280;8746;49.230;9.220;2022-08-19T03:01:30;99448.50;;;20.26;68.30
17260;BME280;8746;49.230;9.220;2022-08-19T03:03:57;99454.81;;;20.25;68.08
17260;BME280;8746;49.230;9.220;2022-08-19T03:06:23;99457.66;;;20.24;68.73
17260;BME280;8746;49.230;9.220;2022-08-19T03:08:49;99452.00;;;20.27;68.19
17260;BME280;8746;49.230;9.220;2022-08-19T03:11:20;99446.06;;;20.23;68.60
17260;BME280;8746;49.230;9.220;2022-08-19T03:13:47;99447.63;;;20.26;68.62
17260;BME280;8746;49.230;9.220;2022-08-19T03:16:18;99449.19;;;20.28;68.38
17260;BME280;8746;49.230;9.220;2022-08-19T03:18:44;99447.78;;;20.24;68.44
17260;BME280;8746;49.230;9.220;2022-08-19T03:21:15;99449.19;;;20.28;68.12
17260;BME280;8746;49.230;9.220;2022-08-19T03:23:41;99448.50;;;20.26;68.25
17260;BME280;8746;49.230;9.220;2022-08-19T03:26:06;99446.66;;;20.27;68.14
17260;BME280;8746;49.230;9.220;2022-08-19T03:28:32;99453.56;;;20.29;68.17
17260;BME280;8746;49.230;9.220;2022-08-19T03:31:05;99455.69;;;20.36;68.16
17260;BME280;8746;49.230;9.220;2022-08-19T03:33:34;99450.31;;;20.26;68.40
17260;BME280;8746;49.230;9.220;2022-08-19T03:36:13;99468.47;;;20.22;68.66
17260;BME280;8746;49.230;9.220;2022-08-19T03:38:51;99477.06;;;20.16;68.71
17260;BME280;8746;49.230;9.220;2022-08-19T03:41:22;99482.41;;;20.16;68.52
17260;BME280;8746;49.230;9.220;2022-08-19T03:43:48;99486.78;;;20.17;68.56
17260;BME280;8746;49.230;9.220;2022-08-19T03:46:16;99485.81;;;20.18;68.61
17260;BME280;8746;49.230;9.220;2022-08-19T03:48:43;99480.19;;;20.21;69.07
17260;BME280;8746;49.230;9.220;2022-08-19T03:51:17;99465.94;;;20.21;69.04
17260;BME280;8746;49.230;9.220;2022-08-19T03:53:43;99467.78;;;20.20;68.75
17260;BME280;8746;49.230;9.220;2022-08-19T03:56:09;99459.56;;;20.12;68.81
17260;BME280;8746;49.230;9.220;2022-08-19T03:58:35;99465.75;;;20.12;68.68
17260;BME280;8746;49.230;9.220;2022-08-19T04:01:07;99461.81;;;20.07;68.92
17260;BME280;8746;49.230;9.220;2022-08-19T04:03:32;99456.41;;;19.97;69.65
17260;BME280;8746;49.230;9.220;2022-08-19T04:05:59;99451.34;;;20.04;69.26
17260;BME280;8746;49.230;9.220;2022-08-19T04:08:24;99459.66;;;20.00;69.31
17260;BME280;8746;49.230;9.220;2022-08-19T04:10:50;99464.06;;;20.01;69.30
17260;BME280;8746;49.230;9.220;2022-08-19T04:13:17;99451.34;;;20.04;69.21
17260;BME280;8746;49.230;9.220;2022-08-19T04:15:44;99454.03;;;20.04;69.40
17260;BME280;8746;49.230;9.220;2022-08-19T04:18:13;99451.50;;;20.02;69.41
17260;BME280;8746;49.230;9.220;2022-08-19T04:20:43;99459.38;;;20.04;69.52
17260;BME280;8746;49.230;9.220;2022-08-19T04:23:10;99459.78;;;19.99;69.83
17260;BME280;8746;49.230;9.220;2022-08-19T04:25:37;99462.59;;;19.97;69.43
17260;BME280;8746;49.230;9.220;2022-08-19T04:28:03;99468.94;;;19.96;68.93
17260;BME280;8746;49.230;9.220;2022-08-19T04:30:28;99473.06;;;20.00;69.07
17260;BME280;8746;49.230;9.220;2022-08-19T04:32:54;99459.38;;;20.04;68.84
17260;BME280;8746;49.230;9.220;2022-08-19T04:35:19;99466.44;;;20.05;68.96
17260;BME280;8746;49.230;9.220;2022-08-19T04:37:44;99467.28;;;20.05;68.81
17260;BME280;8746;49.230;9.220;2022-08-19T04:40:10;99464.75;;;20.04;68.66
17260;BME280;8746;49.230;9.220;2022-08-19T04:42:54;99461.78;;;19.97;68.88
17260;BME280;8746;49.230;9.220;2022-08-19T04:45:20;99462.34;;;20.00;68.90
17260;BME280;8746;49.230;9.220;2022-08-19T04:47:45;99451.16;;;19.95;68.85
17260;BME280;8746;49.230;9.220;2022-08-19T04:50:11;99460.50;;;20.01;69.02
17260;BME280;8746;49.230;9.220;2022-08-19T04:52:38;99460.38;;;20.02;68.60
17260;BME280;8746;49.230;9.220;2022-08-19T04:55:07;99464.75;;;20.04;68.72
17260;BME280;8746;49.230;9.220;2022-08-19T04:57:33;99460.69;;;20.09;68.19
17260;BME280;8746;49.230;9.220;2022-08-19T04:59:58;99456.47;;;20.07;68.24
17260;BME280;8746;49.230;9.220;2022-08-19T05:02:23;99466.03;;;20.09;68.32
17260;BME280;8746;49.230;9.220;2022-08-19T05:04:50;99467.34;;;20.15;68.44
17260;BME280;8746;49.230;9.220;2022-08-19T05:07:15;99469.47;;;20.21;68.56
17260;BME280;8746;49.230;9.220;2022-08-19T05:09:41;99471.88;;;20.24;68.09
17260;BME280;8746;49.230;9.220;2022-08-19T05:12:06;99467.94;;;20.28;68.03
17260;BME280;8746;49.230;9.220;2022-08-19T05:14:31;99473.75;;;20.33;68.09
17260;BME280;8746;49.230;9.220;2022-08-19T05:16:57;99481.31;;;20.28;68.03
17260;BME280;8746;49.230;9.220;2022-08-19T05:19:22;99483.59;;;20.33;68.10
17260;BME280;8746;49.230;9.220;2022-08-19T05:22:06;99484.91;;;20.39;68.01
17260;BME280;8746;49.230;9.220;2022-08-19T05:24:50;99488.00;;;20.44;67.93
17260;BME280;8746;49.230;9.220;2022-08-19T05:27:15;99490.69;;;20.44;67.98
17260;BME280;8746;49.230;9.220;2022-08-19T05:29:40;99497.19;;;20.51;67.51
17260;BME280;8746;49.230;9.220;2022-08-19T05:32:06;99499.72;;;20.53;68.48
17260;BME280;8746;49.230;9.220;2022-08-19T05:34:36;99501.84;;;20.49;68.21
17260;BME280;8746;49.230;9.220;2022-08-19T05:37:03;99508.19;;;20.48;67.88
17260;BME280;8746;49.230;9.220;2022-08-19T05:39:32;99511.41;;;20.42;67.47
17260;BME280;8746;49.230;9.220;2022-08-19T05:42:01;99514.06;;;20.42;67.27
17260;BME280;8746;49.230;9.220;2022-08-19T05:44:29;99518.34;;;20.44;67.71
17260;BME280;8746;49.230;9.220;2022-08-19T05:46:57;99523.72;;;20.54;67.68
17260;BME280;8746;49.230;9.220;2022-08-19T05:49:24;99536.03;;;20.66;66.83
17260;BME280;8746;49.230;9.220;2022-08-19T05:51:50;99540.97;;;20.71;66.61
17260;BME280;8746;49.230;9.220;2022-08-19T05:54:16;99536.50;;;20.72;66.67
17260;BME280;8746;49.230;9.220;2022-08-19T05:56:43;99537.06;;;20.75;66.20
17260;BME280;8746;49.230;9.220;2022-08-19T05:59:10;99541.31;;;20.78;66.80
17260;BME280;8746;49.230;9.220;2022-08-19T06:01:41;99548.78;;;20.74;66.52
17260;BME280;8746;49.230;9.220;2022-08-19T06:04:07;99550.63;;;20.74;66.72
17260;BME280;8746;49.230;9.220;2022-08-19T06:06:33;99555.13;;;20.73;66.42
17260;BME280;8746;49.230;9.220;2022-08-19T06:09:04;99554.16;;;20.84;66.41
17260;BME280;8746;49.230;9.220;2022-08-19T06:11:37;99560.94;;;20.88;66.87
17260;BME280;8746;49.230;9.220;2022-08-19T06:14:06;99555.44;;;20.80;66.89
17260;BME280;8746;49.230;9.220;2022-08-19T06:16:34;99554.28;;;20.73;66.86
17260;BME280;8746;49.230;9.220;2022-08-19T06:19:04;99559.81;;;20.81;66.35
17260;BME280;8746;49.230;9.220;2022-08-19T06:21:32;99567.13;;;20.79;66.71
17260;BME280;8746;49.230;9.220;2022-08-19T06:23:58;99563.31;;;20.81;66.60
17260;BME280;8746;49.230;9.220;2022-08-19T06:26:24;99560.81;;;20.90;66.62
17260;BME280;8746;49.230;9.220;2022-08-19T06:28:50;99559.94;;;20.89;66.50
17260;BME280;8746;49.230;9.220;2022-08-19T06:31:19;99557.41;;;20.88;66.43
17260;BME280;8746;49.230;9.220;2022-08-19T06:33:46;99565.75;;;20.94;66.26
17260;BME280;8746;49.230;9.220;2022-08-19T06:36:23;99557.84;;;21.03;66.28
17260;BME280;8746;49.230;9.220;2022-08-19T06:39:04;99560.28;;;21.06;65.85
17260;BME280;8746;49.230;9.220;2022-08-19T06:41:34;99566.06;;;21.01;65.91
17260;BME280;8746;49.230;9.220;2022-08-19T06:44:00;99562.25;;;21.04;66.35
17260;BME280;8746;49.230;9.220;2022-08-19T06:46:26;99567.03;;;21.00;66.04
17260;BME280;8746;49.230;9.220;2022-08-19T06:48:52;99567.59;;;21.04;65.89
17260;BME280;8746;49.230;9.220;2022-08-19T06:51:18;99566.63;;;21.05;65.93
17260;BME280;8746;49.230;9.220;2022-08-19T06:53:46;99558.28;;;21.08;66.00
17260;BME280;8746;49.230;9.220;2022-08-19T06:56:17;99567.34;;;21.17;66.15
17260;BME280;8746;49.230;9.220;2022-08-19T06:58:43;99571.44;;;21.11;66.04
17260;BME280;8746;49.230;9.220;2022-08-19T07:01:09;99575.41;;;21.17;65.98
17260;BME280;8746;49.230;9.220;2022-08-19T07:03:36;99573.69;;;21.06;65.94
17260;BME280;8746;49.230;9.220;2022-08-19T07:06:09;99561.41;;;21.03;66.46
17260;BME280;8746;49.230;9.220;2022-08-19T07:08:36;99554.34;;;21.02;66.43
17260;BME280;8746;49.230;9.220;2022-08-19T07:11:05;99554.19;;;21.04;66.45
17260;BME280;8746;49.230;9.220;2022-08-19T07:13:32;99561.28;;;21.14;66.24
17260;BME280;8746;49.230;9.220;2022-08-19T07:16:08;99560.97;;;21.18;65.78
17260;BME280;8746;49.230;9.220;2022-08-19T07:18:35;99565.81;;;21.14;65.93
17260;BME280;8746;49.230;9.220;2022-08-19T07:21:09;99566.22;;;21.19;65.74
17260;BME280;8746;49.230;9.220;2022-08-19T07:23:35;99562.81;;;21.17;66.31
17260;BME280;8746;49.230;9.220;2022-08-19T07:26:31;99569.03;;;21.37;65.39
17260;BME280;8746;49.230;9.220;2022-08-19T07:28:57;99565.66;;;21.55;64.96
17260;BME280;8746;49.230;9.220;2022-08-19T07:31:26;99566.81;;;21.52;65.09
17260;BME280;8746;49.230;9.220;2022-08-19T07:33:53;99573.34;;;21.59;64.92
17260;BME280;8746;49.230;9.220;2022-08-19T07:36:25;99574.16;;;21.70;64.42
17260;BME280;8746;49.230;9.220;2022-08-19T07:38:54;99571.63;;;21.78;64.22
17260;BME280;8746;49.230;9.220;2022-08-19T07:41:25;99575.00;;;21.90;64.50
17260;BME280;8746;49.230;9.220;2022-08-19T07:43:51;99575.75;;;22.20;63.64
17260;BME280;8746;49.230;9.220;2022-08-19T07:46:18;99576.56;;;22.30;62.89
17260;BME280;8746;49.230;9.220;2022-08-19T07:48:46;99580.97;;;22.21;63.31
17260;BME280;8746;49.230;9.220;2022-08-19T07:51:14;99582.69;;;22.22;63.25
17260;BME280;8746;49.230;9.220;2022-08-19T07:53:40;99586.09;;;22.15;63.51
17260;BME280;8746;49.230;9.220;2022-08-19T07:56:06;99581.94;;;22.40;62.84
17260;BME280;8746;49.230;9.220;2022-08-19T07:58:34;99583.34;;;22.44;62.86
17260;BME280;8746;49.230;9.220;2022-08-19T08:01:02;99589.25;;;22.57;62.35
17260;BME280;8746;49.230;9.220;2022-08-19T08:03:28;99587.53;;;22.56;61.99
17260;BME280;8746;49.230;9.220;2022-08-19T08:06:14;99591.03;;;22.39;62.58
17260;BME280;8746;49.230;9.220;2022-08-19T08:08:58;99584.25;;;22.15;63.48
17260;BME280;8746;49.230;9.220;2022-08-19T08:11:38;99581.47;;;21.97;64.07
17260;BME280;8746;49.230;9.220;2022-08-19T08:14:04;99588.13;;;21.93;64.23
17260;BME280;8746;49.230;9.220;2022-08-19T08:16:33;99592.75;;;22.01;63.90
17260;BME280;8746;49.230;9.220;2022-08-19T08:18:59;99592.75;;;22.01;64.10
17260;BME280;8746;49.230;9.220;2022-08-19T08:21:25;99596.00;;;22.04;64.14
17260;BME280;8746;49.230;9.220;2022-08-19T08:23:50;99597.56;;;22.07;64.35
17260;BME280;8746;49.230;9.220;2022-08-19T08:26:18;99602.78;;;22.18;63.96
17260;BME280;8746;49.230;9.220;2022-08-19T08:28:43;99602.84;;;22.36;63.54
17260;BME280;8746;49.230;9.220;2022-08-19T08:31:09;99602.88;;;22.74;62.74
17260;BME280;8746;49.230;9.220;2022-08-19T08:33:35;99595.75;;;22.83;62.48
17260;BME280;8746;49.230;9.220;2022-08-19T08:36:04;99598.31;;;22.84;61.77
17260;BME280;8746;49.230;9.220;2022-08-19T08:38:31;99599.75;;;23.07;61.51
17260;BME280;8746;49.230;9.220;2022-08-19T08:41:01;99597.03;;;23.16;60.72
17260;BME280;8746;49.230;9.220;2022-08-19T08:43:39;99600.25;;;23.20;60.85
17260;BME280;8746;49.230;9.220;2022-08-19T08:46:11;99602.72;;;23.03;60.89
17260;BME280;8746;49.230;9.220;2022-08-19T08:48:50;99599.59;;;22.80;61.94
17260;BME280;8746;49.230;9.220;2022-08-19T08:51:23;99608.91;;;22.86;61.57
17260;BME280;8746;49.230;9.220;2022-08-19T08:53:52;99595.19;;;22.89;61.86
17260;BME280;8746;49.230;9.220;2022-08-19T08:56:18;99605.94;;;22.61;62.49
17260;BME280;8746;49.230;9.220;2022-08-19T08:58:59;99604.25;;;22.50;63.16
17260;BME280;8746;49.230;9.220;2022-08-19T09:01:26;99601.19;;;22.45;63.58
17260;BME280;8746;49.230;9.220;2022-08-19T09:03:53;99595.22;;;22.51;63.61
17260;BME280;8746;49.230;9.220;2022-08-19T09:06:28;99595.84;;;22.63;63.32
17260;BME280;8746;49.230;9.220;2022-08-19T09:09:20;99590.44;;;22.73;62.69
17260;BME280;8746;49.230;9.220;2022-08-19T09:17:28;99578.38;;;23.05;62.07
17260;BME280;8746;49.230;9.220;2022-08-19T09:20:04;99581.34;;;23.02;62.21
17260;BME280;8746;49.230;9.220;2022-08-19T09:22:34;99579.97;;;22.98;62.01
17260;BME280;8746;49.230;9.220;2022-08-19T09:25:01;99575.75;;;23.13;61.77
17260;BME280;8746;49.230;9.220;2022-08-19T09:27:27;99575.81;;;23.31;61.33
17260;BME280;8746;49.230;9.220;2022-08-19T09:29:53;99576.19;;;23.18;61.79
17260;BME280;8746;49.230;9.220;2022-08-19T09:32:20;99584.66;;;23.24;61.68
17260;BME280;8746;49.230;9.220;2022-08-19T09:34:46;99581.81;;;23.25;61.54
17260;BME280;8746;49.230;9.220;2022-08-19T09:37:12;99585.78;;;23.39;61.18
17260;BME280;8746;49.230;9.220;2022-08-19T09:39:38;99586.72;;;23.30;60.87
17260;BME280;8746;49.230;9.220;2022-08-19T09:42:06;99585.50;;;23.42;59.95
17260;BME280;8746;49.230;9.220;2022-08-19T09:44:36;99579.16;;;23.69;59.29
17260;BME280;8746;49.230;9.220;2022-08-19T09:47:02;99585.88;;;23.83;57.07
17260;BME280;8746;49.230;9.220;2022-08-19T09:49:28;99592.00;;;23.76;56.42
17260;BME280;8746;49.230;9.220;2022-08-19T09:51:54;99593.25;;;23.81;56.01
17260;BME280;8746;49.230;9.220;2022-08-19T09:54:21;99597.41;;;23.94;56.03
17260;BME280;8746;49.230;9.220;2022-08-19T09:56:49;99595.84;;;24.09;55.03
17260;BME280;8746;49.230;9.220;2022-08-19T09:59:15;99591.03;;;24.21;54.03
17260;BME280;8746;49.230;9.220;2022-08-19T10:01:40;99601.13;;;24.19;54.47
17260;BME280;8746;49.230;9.220;2022-08-19T10:04:06;99606.28;;;24.12;54.71
17260;BME280;8746;49.230;9.220;2022-08-19T10:06:37;99594.34;;;24.41;53.90
17260;BME280;8746;49.230;9.220;2022-08-19T10:09:06;99587.19;;;24.58;52.87
17260;BME280;8746;49.230;9.220;2022-08-19T10:11:34;99589.56;;;24.96;52.83
17260;BME280;8746;49.230;9.220;2022-08-19T10:14:01;99592.19;;;24.79;51.76
17260;BME280;8746;49.230;9.220;2022-08-19T10:16:27;99595.47;;;25.08;51.62
17260;BME280;8746;49.230;9.220;2022-08-19T10:18:53;99590.03;;;25.51;50.55
17260;BME280;8746;49.230;9.220;2022-08-19T10:21:25;99588.34;;;25.41;50.50
17260;BME280;8746;49.230;9.220;2022-08-19T10:23:52;99576.69;;;25.57;50.54
17260;BME280;8746;49.230;9.220;2022-08-19T10:26:25;99575.00;;;25.48;50.50
17260;BME280;8746;49.230;9.220;2022-08-19T10:28:51;99571.63;;;25.63;50.21
17260;BME280;8746;49.230;9.220;2022-08-19T10:31:20;99571.13;;;25.67;50.53
17260;BME280;8746;49.230;9.220;2022-08-19T10:33:47;99573.00;;;25.58;50.83
17260;BME280;8746;49.230;9.220;2022-08-19T10:36:21;99563.69;;;25.53;50.81
17260;BME280;8746;49.230;9.220;2022-08-19T10:38:49;99561.28;;;25.33;50.94
17260;BME280;8746;49.230;9.220;2022-08-19T10:41:19;99558.22;;;25.11;51.04
17260;BME280;8746;49.230;9.220;2022-08-19T10:43:46;99561.28;;;25.17;51.60
17260;BME280;8746;49.230;9.220;2022-08-19T10:46:14;99559.53;;;24.99;51.36
17260;BME280;8746;49.230;9.220;2022-08-19T10:48:41;99569.66;;;25.05;50.73
17260;BME280;8746;49.230;9.220;2022-08-19T10:51:07;99563.47;;;25.21;50.27
17260;BME280;8746;49.230;9.220;2022-08-19T10:53:51;99568.63;;;24.98;50.36
17260;BME280;8746;49.230;9.220;2022-08-19T10:56:17;99566.19;;;25.29;50.07
17260;BME280;8746;49.230;9.220;2022-08-19T10:59:03;99561.59;;;25.13;50.22
17260;BME280;8746;49.230;9.220;2022-08-19T11:01:30;99553.88;;;25.35;49.78
17260;BME280;8746;49.230;9.220;2022-08-19T11:03:56;99545.09;;;25.33;49.74
17260;BME280;8746;49.230;9.220;2022-08-19T11:06:23;99548.47;;;25.35;49.27
17260;BME280;8746;49.230;9.220;2022-08-19T11:08:50;99545.47;;;25.47;48.60
17260;BME280;8746;49.230;9.220;2022-08-19T11:11:17;99545.44;;;25.30;48.64
17260;BME280;8746;49.230;9.220;2022-08-19T11:13:43;99546.31;;;25.47;49.06
17260;BME280;8746;49.230;9.220;2022-08-19T11:16:11;99544.41;;;25.15;49.13
17260;BME280;8746;49.230;9.220;2022-08-19T11:18:40;99543.03;;;25.19;48.97
17260;BME280;8746;49.230;9.220;2022-08-19T11:23:46;99552.28;;;24.91;49.08
17260;BME280;8746;49.230;9.220;2022-08-19T11:26:13;99542.66;;;24.89;49.73
17260;BME280;8746;49.230;9.220;2022-08-19T11:28:39;99529.03;;;25.07;49.53
17260;BME280;8746;49.230;9.220;2022-08-19T11:31:10;99531.72;;;25.15;49.12
17260;BME280;8746;49.230;9.220;2022-08-19T11:33:36;99529.56;;;25.35;47.80
17260;BME280;8746;49.230;9.220;2022-08-19T11:36:02;99535.66;;;25.46;47.82
17260;BME280;8746;49.230;9.220;2022-08-19T11:38:27;99529.41;;;25.37;47.73
17260;BME280;8746;49.230;9.220;2022-08-19T11:41:00;99541.69;;;25.31;47.84
17260;BME280;8746;49.230;9.220;2022-08-19T11:43:27;99535.28;;;25.24;48.17
17260;BME280;8746;49.230;9.220;2022-08-19T11:45:54;99538.16;;;25.31;47.53
17260;BME280;8746;49.230;9.220;2022-08-19T11:48:20;99533.25;;;25.09;47.68
17260;BME280;8746;49.230;9.220;2022-08-19T11:50:53;99536.81;;;25.18;47.83
17260;BME280;8746;49.230;9.220;2022-08-19T11:53:21;99541.34;;;25.09;47.76
17260;BME280;8746;49.230;9.220;2022-08-19T11:55:47;99535.63;;;25.21;47.66
17260;BME280;8746;49.230;9.220;2022-08-19T11:58:14;99540.34;;;25.19;47.02
17260;BME280;8746;49.230;9.220;2022-08-19T12:00:41;99540.69;;;25.24;46.52
17260;BME280;8746;49.230;9.220;2022-08-19T12:03:07;99545.09;;;25.33;46.26
17260;BME280;8746;49.230;9.220;2022-08-19T12:05:36;99543.75;;;25.37;46.96
17260;BME280;8746;49.230;9.220;2022-08-19T12:08:02;99547.50;;;25.53;46.87
17260;BME280;8746;49.230;9.220;2022-08-19T12:10:27;99544.13;;;25.59;46.35
17260;BME280;8746;49.230;9.220;2022-08-19T12:12:53;99546.81;;;25.75;46.03
17260;BME280;8746;49.230;9.220;2022-08-19T12:15:18;99547.47;;;25.77;45.66
17260;BME280;8746;49.230;9.220;2022-08-19T12:17:44;99545.25;;;26.06;45.01
17260;BME280;8746;49.230;9.220;2022-08-19T12:20:10;99546.75;;;26.25;44.48
17260;BME280;8746;49.230;9.220;2022-08-19T12:22:37;99540.00;;;26.69;44.47
17260;BME280;8746;49.230;9.220;2022-08-19T12:25:04;99528.63;;;26.82;43.62
17260;BME280;8746;49.230;9.220;2022-08-19T12:27:30;99539.25;;;26.92;43.12
17260;BME280;8746;49.230;9.220;2022-08-19T12:29:56;99533.56;;;26.70;43.82
17260;BME280;8746;49.230;9.220;2022-08-19T12:32:22;99525.03;;;26.90;43.56
17260;BME280;8746;49.230;9.220;2022-08-19T12:34:49;99532.78;;;27.16;42.01
17260;BME280;8746;49.230;9.220;2022-08-19T12:37:15;99522.81;;;27.63;41.46
17260;BME280;8746;49.230;9.220;2022-08-19T12:39:42;99514.25;;;27.89;40.90
17260;BME280;8746;49.230;9.220;2022-08-19T12:42:12;99519.72;;;28.04;40.92
17260;BME280;8746;49.230;9.220;2022-08-19T12:44:40;99517.56;;;27.85;40.53
17260;BME280;8746;49.230;9.220;2022-08-19T12:47:08;99522.31;;;27.97;40.35
17260;BME280;8746;49.230;9.220;2022-08-19T12:49:34;99518.53;;;28.07;40.08
17260;BME280;8746;49.230;9.220;2022-08-19T12:52:03;99513.78;;;27.86;40.17
17260;BME280;8746;49.230;9.220;2022-08-19T12:54:29;99517.59;;;27.61;40.91
17260;BME280;8746;49.230;9.220;2022-08-19T12:56:56;99521.25;;;27.22;41.69
17260;BME280;8746;49.230;9.220;2022-08-19T12:59:22;99524.94;;;26.75;42.51
17260;BME280;8746;49.230;9.220;2022-08-19T13:01:47;99534.38;;;26.70;42.78
17260;BME280;8746;49.230;9.220;2022-08-19T13:04:13;99540.28;;;26.43;43.34
17260;BME280;8746;49.230;9.220;2022-08-19T13:06:38;99534.91;;;26.26;42.83
17260;BME280;8746;49.230;9.220;2022-08-19T13:09:04;99528.53;;;26.02;44.01
17260;BME280;8746;49.230;9.220;2022-08-19T13:11:30;99536.47;;;25.87;44.21
17260;BME280;8746;49.230;9.220;2022-08-19T13:14:00;99542.75;;;25.88;43.33
17260;BME280;8746;49.230;9.220;2022-08-19T13:16:26;99541.56;;;25.74;43.48
17260;BME280;8746;49.230;9.220;2022-08-19T13:18:53;99539.38;;;25.86;43.27
17260;BME280;8746;49.230;9.220;2022-08-19T13:21:22;99539.38;;;25.86;43.48
17260;BME280;8746;49.230;9.220;2022-08-19T13:23:48;99530.38;;;25.93;44.23